createdAt,value
2023-04-16T00:01:05.179Z,99.90
2023-04-16T00:03:32.776Z,99.90
2023-04-16T00:05:59.779Z,99.90
2023-04-16T00:08:26.521Z,99.90
2023-04-16T00:10:54.092Z,99.90
2023-04-16T00:13:21.058Z,99.90
2023-04-16T00:15:47.894Z,99.90
2023-04-16T00:18:14.728Z,99.90
2023-04-16T00:20:41.438Z,99.90
2023-04-16T00:23:08.375Z,99.90
2023-04-16T00:25:35.080Z,99.90
2023-04-16T00:28:01.841Z,99.90
2023-04-16T00:30:28.612Z,99.90
2023-04-16T00:32:55.394Z,99.90
2023-04-16T00:35:22.148Z,99.90
2023-04-16T00:37:48.930Z,99.90
2023-04-16T00:40:15.754Z,99.90
2023-04-16T00:42:42.475Z,99.90
2023-04-16T00:45:10.415Z,99.90
2023-04-16T00:47:37.691Z,99.90
2023-04-16T00:50:04.953Z,99.90
2023-04-16T00:52:34.949Z,99.90
2023-04-16T00:55:01.878Z,99.90
2023-04-16T00:57:28.690Z,99.90
2023-04-16T00:59:56.355Z,99.90
2023-04-16T01:02:23.697Z,99.90
2023-04-16T01:04:51.720Z,99.90
2023-04-16T01:07:18.473Z,99.90
2023-04-16T01:09:45.387Z,99.90
2023-04-16T01:12:13.343Z,99.90
2023-04-16T01:14:40.294Z,99.90
2023-04-16T01:17:07.257Z,99.90
2023-04-16T01:19:36.363Z,99.90
2023-04-16T01:22:04.300Z,99.90
2023-04-16T01:24:31.401Z,99.90
2023-04-16T01:27:01.271Z,99.90
2023-04-16T01:29:28.065Z,99.90
2023-04-16T01:31:54.815Z,99.90
2023-04-16T01:34:21.577Z,99.90
2023-04-16T01:36:48.389Z,99.90
2023-04-16T01:39:16.509Z,99.90
2023-04-16T01:41:43.781Z,99.90
2023-04-16T01:44:10.802Z,99.90
2023-04-16T01:46:38.341Z,99.90
2023-04-16T01:49:07.213Z,99.90
2023-04-16T01:51:34.281Z,99.90
2023-04-16T01:54:01.155Z,99.90
2023-04-16T01:56:28.120Z,99.90
2023-04-16T01:58:55.040Z,99.90
2023-04-16T02:01:21.957Z,99.90
2023-04-16T02:03:49.304Z,99.90
2023-04-16T02:06:16.487Z,99.90
2023-04-16T02:08:43.365Z,99.90
2023-04-16T02:11:10.167Z,99.90
2023-04-16T02:13:36.933Z,99.90
2023-04-16T02:16:03.803Z,99.90
2023-04-16T02:18:30.593Z,99.90
2023-04-16T02:21:00.170Z,99.90
2023-04-16T02:23:26.925Z,99.90
2023-04-16T02:25:53.876Z,99.90
2023-04-16T02:28:20.692Z,99.90
2023-04-16T02:30:47.508Z,99.90
2023-04-16T02:33:14.344Z,99.90
2023-04-16T02:35:41.404Z,99.90
2023-04-16T02:38:08.248Z,99.90
2023-04-16T02:40:35.405Z,99.90
2023-04-16T02:43:02.332Z,99.90
2023-04-16T02:45:31.388Z,99.90
2023-04-16T02:47:58.465Z,99.90
2023-04-16T02:50:25.372Z,99.90
2023-04-16T02:52:52.305Z,99.90
2023-04-16T02:55:19.683Z,99.90
2023-04-16T02:57:46.557Z,99.90
2023-04-16T03:00:13.630Z,99.90
2023-04-16T03:02:40.878Z,99.90
2023-04-16T03:05:08.199Z,99.90
2023-04-16T03:07:35.337Z,99.90
2023-04-16T03:10:02.302Z,99.90
2023-04-16T03:12:29.117Z,99.90
2023-04-16T03:14:55.954Z,99.90
2023-04-16T03:17:22.739Z,99.90
2023-04-16T03:19:50.972Z,99.90
2023-04-16T03:22:18.112Z,99.90
2023-04-16T03:24:44.905Z,99.90
2023-04-16T03:27:11.892Z,99.90
2023-04-16T03:29:39.143Z,99.90
2023-04-16T03:32:05.938Z,99.90
2023-04-16T03:34:32.889Z,99.90
2023-04-16T03:37:00.262Z,99.90
2023-04-16T03:39:27.379Z,99.90
2023-04-16T03:41:54.321Z,99.90
2023-04-16T03:44:21.234Z,99.90
2023-04-16T03:46:47.975Z,99.90
2023-04-16T03:49:15.199Z,99.90
2023-04-16T03:51:41.997Z,99.90
2023-04-16T03:54:08.857Z,99.90
2023-04-16T03:56:35.724Z,99.90
2023-04-16T03:59:02.785Z,99.90
2023-04-16T04:01:29.715Z,99.90
2023-04-16T04:03:56.760Z,99.90
2023-04-16T04:06:23.765Z,99.90
2023-04-16T04:08:50.545Z,99.90
2023-04-16T04:11:17.508Z,99.90
2023-04-16T04:13:44.325Z,99.90
2023-04-16T04:16:11.240Z,99.90
2023-04-16T04:18:38.355Z,99.90
2023-04-16T04:21:06.864Z,99.90
2023-04-16T04:23:34.121Z,99.90
2023-04-16T04:26:03.833Z,99.90
2023-04-16T04:28:30.918Z,99.90
2023-04-16T04:30:58.509Z,99.90
2023-04-16T04:33:29.088Z,99.90
2023-04-16T04:35:55.921Z,99.90
2023-04-16T04:38:25.198Z,99.90
2023-04-16T04:40:52.858Z,99.90
2023-04-16T04:43:20.417Z,99.90
2023-04-16T04:45:47.506Z,99.90
2023-04-16T04:48:14.512Z,99.90
2023-04-16T04:50:42.720Z,99.90
2023-04-16T04:53:11.660Z,99.90
2023-04-16T04:55:39.397Z,99.90
2023-04-16T04:58:06.812Z,99.90
2023-04-16T05:00:34.950Z,99.90
2023-04-16T05:03:06.799Z,99.90
2023-04-16T05:05:33.726Z,99.90
2023-04-16T05:08:00.605Z,99.90
2023-04-16T05:10:27.961Z,99.90
2023-04-16T05:12:54.676Z,99.90
2023-04-16T05:15:21.734Z,99.90
2023-04-16T05:17:48.665Z,99.90
2023-04-16T05:20:15.527Z,99.90
2023-04-16T05:22:42.302Z,99.90
2023-04-16T05:25:09.350Z,99.90
2023-04-16T05:27:37.104Z,99.90
2023-04-16T05:30:04.294Z,99.90
2023-04-16T05:32:31.456Z,99.90
2023-04-16T05:34:59.051Z,99.90
2023-04-16T05:37:25.754Z,99.90
2023-04-16T05:39:52.676Z,99.90
2023-04-16T05:42:19.498Z,99.90
2023-04-16T05:44:46.533Z,99.90
2023-04-16T05:47:13.308Z,99.90
2023-04-16T05:49:40.256Z,99.90
2023-04-16T05:52:07.474Z,99.90
2023-04-16T05:54:34.381Z,99.90
2023-04-16T05:57:02.157Z,99.90
2023-04-16T05:59:29.512Z,99.90
2023-04-16T06:01:56.752Z,99.90
2023-04-16T06:04:23.534Z,99.90
2023-04-16T06:06:50.501Z,99.90
2023-04-16T06:09:18.330Z,99.90
2023-04-16T06:11:45.545Z,99.90
2023-04-16T06:14:12.337Z,99.90
2023-04-16T06:16:39.247Z,99.90
2023-04-16T06:19:06.193Z,99.90
2023-04-16T06:21:33.424Z,99.90
2023-04-16T06:24:00.773Z,99.90
2023-04-16T06:26:27.455Z,99.90
2023-04-16T06:28:54.341Z,99.90
2023-04-16T06:31:21.131Z,99.90
2023-04-16T06:33:48.116Z,99.90
2023-04-16T06:36:14.875Z,99.90
2023-04-16T06:38:41.645Z,99.90
2023-04-16T06:41:08.449Z,99.90
2023-04-16T06:43:35.555Z,99.90
2023-04-16T06:46:02.220Z,99.90
2023-04-16T06:48:29.935Z,99.90
2023-04-16T06:50:56.838Z,99.90
2023-04-16T06:53:23.968Z,99.90
2023-04-16T06:55:50.831Z,99.90
2023-04-16T06:58:17.669Z,99.90
2023-04-16T07:00:45.180Z,99.90
2023-04-16T07:03:12.179Z,99.90
2023-04-16T07:05:39.194Z,99.90
2023-04-16T07:08:06.080Z,99.90
2023-04-16T07:10:35.508Z,99.90
2023-04-16T07:13:02.358Z,99.90
2023-04-16T07:15:29.185Z,99.90
2023-04-16T07:17:55.908Z,99.90
2023-04-16T07:20:22.745Z,99.90
2023-04-16T07:22:49.792Z,99.90
2023-04-16T07:25:16.565Z,99.90
2023-04-16T07:27:43.485Z,99.90
2023-04-16T07:30:10.983Z,99.90
2023-04-16T07:32:38.033Z,99.90
2023-04-16T07:35:05.061Z,99.90
2023-04-16T07:37:31.903Z,99.90
2023-04-16T07:40:00.575Z,99.90
2023-04-16T07:42:28.192Z,99.90
2023-04-16T07:44:55.374Z,99.90
2023-04-16T07:47:23.279Z,99.90
2023-04-16T07:49:51.342Z,99.90
2023-04-16T07:52:18.216Z,99.90
2023-04-16T07:54:44.995Z,99.90
2023-04-16T07:57:12.306Z,99.90
2023-04-16T07:59:39.133Z,99.90
2023-04-16T08:02:06.338Z,99.90
2023-04-16T08:04:33.398Z,99.90
2023-04-16T08:07:00.282Z,99.90
2023-04-16T08:09:28.670Z,99.90
2023-04-16T08:11:55.644Z,99.90
2023-04-16T08:14:22.365Z,99.90
2023-04-16T08:16:49.761Z,99.90
2023-04-16T08:19:16.506Z,99.90
2023-04-16T08:21:43.678Z,99.90
2023-04-16T08:24:10.897Z,99.90
2023-04-16T08:26:37.655Z,99.90
2023-04-16T08:29:04.572Z,99.90
2023-04-16T08:31:31.806Z,99.90
2023-04-16T08:33:58.647Z,99.90
2023-04-16T08:36:25.677Z,99.90
2023-04-16T08:38:52.444Z,99.90
2023-04-16T08:41:22.071Z,99.90
2023-04-16T08:43:51.825Z,99.90
2023-04-16T08:46:22.702Z,99.90
2023-04-16T08:48:53.014Z,99.90
2023-04-16T08:51:22.092Z,99.90
2023-04-16T08:53:51.912Z,99.90
2023-04-16T08:56:22.929Z,99.90
2023-04-16T08:58:51.816Z,99.90
2023-04-16T09:01:19.786Z,99.90
2023-04-16T09:03:49.909Z,99.90
2023-04-16T09:06:18.174Z,99.90
2023-04-16T09:08:46.276Z,99.90
2023-04-16T09:11:18.636Z,99.90
2023-04-16T09:13:47.131Z,99.90
2023-04-16T09:16:14.798Z,99.90
2023-04-16T09:18:41.906Z,99.90
2023-04-16T09:21:11.008Z,99.90
2023-04-16T09:23:41.019Z,99.90
2023-04-16T09:26:07.765Z,99.90
2023-04-16T09:28:43.503Z,99.90
2023-04-16T09:31:18.106Z,99.90
2023-04-16T09:34:07.559Z,99.90
2023-04-16T09:36:35.720Z,99.90
2023-04-16T09:39:03.899Z,99.90
2023-04-16T09:41:32.467Z,99.90
2023-04-16T09:44:04.544Z,99.90
2023-04-16T09:46:41.640Z,99.90
2023-04-16T09:49:15.549Z,99.90
2023-04-16T09:51:43.711Z,99.90
2023-04-16T09:54:10.829Z,99.90
2023-04-16T09:56:42.758Z,99.90
2023-04-16T09:59:19.631Z,99.90
2023-04-16T10:01:47.199Z,99.90
2023-04-16T10:04:14.169Z,99.90
2023-04-16T10:06:41.113Z,99.90
2023-04-16T10:09:09.316Z,99.90
2023-04-16T10:11:37.059Z,99.90
2023-04-16T10:14:03.772Z,99.90
2023-04-16T10:16:31.470Z,99.90
2023-04-16T10:18:59.096Z,99.90
2023-04-16T10:21:33.755Z,99.90
2023-04-16T10:24:01.183Z,99.90
2023-04-16T10:26:29.961Z,99.90
2023-04-16T10:28:58.425Z,99.90
2023-04-16T10:31:26.684Z,99.90
2023-04-16T10:33:54.284Z,99.90
2023-04-16T11:56:43.420Z,99.90
2023-04-16T11:59:18.463Z,99.90
2023-04-16T12:01:53.640Z,99.90
2023-04-16T12:04:22.499Z,99.90
2023-04-16T12:07:13.907Z,99.90
2023-04-16T12:09:42.499Z,99.90
2023-04-16T12:12:31.094Z,99.90
2023-04-16T12:15:03.574Z,99.90
2023-04-16T12:17:35.283Z,99.90
2023-04-16T12:20:08.274Z,99.90
2023-04-16T12:22:37.532Z,99.90
2023-04-16T12:25:06.062Z,99.90
2023-04-16T12:27:51.437Z,99.90
2023-04-16T12:30:22.590Z,99.90
2023-04-16T12:32:52.140Z,99.90
2023-04-16T12:35:32.904Z,99.90
2023-04-16T12:38:00.378Z,99.90
2023-04-16T12:40:27.396Z,99.90
2023-04-16T12:42:54.826Z,99.90
2023-04-16T12:45:22.268Z,99.90
2023-04-16T12:47:50.484Z,99.90
2023-04-16T12:50:17.438Z,99.90
2023-04-16T12:52:44.514Z,99.90
2023-04-16T12:55:11.765Z,99.90
2023-04-16T13:14:36.355Z,99.90
2023-04-16T13:17:03.977Z,99.90
2023-04-16T13:19:31.187Z,99.90
2023-04-16T13:21:58.885Z,99.90
2023-04-16T13:24:25.838Z,99.90
2023-04-16T13:26:52.657Z,99.90
2023-04-16T13:29:20.366Z,99.90
2023-04-16T13:31:47.659Z,99.90
2023-04-16T13:34:14.604Z,99.90
2023-04-16T13:36:41.565Z,99.90
2023-04-16T13:39:11.516Z,99.90
2023-04-16T13:41:39.010Z,99.90
2023-04-16T13:44:06.380Z,99.90
2023-04-16T13:46:33.601Z,99.90
2023-04-16T13:49:00.594Z,99.90
2023-04-16T13:51:27.894Z,98.20
2023-04-16T13:53:55.938Z,98.10
2023-04-16T13:56:22.746Z,97.70
2023-04-16T13:58:49.749Z,97.80
2023-04-16T14:01:17.373Z,95.70
2023-04-16T14:03:44.541Z,94.90
2023-04-16T14:06:11.622Z,95.30
2023-04-16T14:08:38.324Z,95.50
2023-04-16T14:11:06.386Z,95.90
2023-04-16T14:13:33.186Z,95.30
2023-04-16T14:16:00.071Z,94.00
2023-04-16T14:18:26.890Z,94.40
2023-04-16T14:20:53.621Z,94.90
2023-04-16T14:23:20.630Z,93.90
2023-04-16T14:25:47.342Z,94.30
2023-04-16T14:28:15.688Z,94.10
2023-04-16T14:30:42.707Z,93.10
2023-04-16T14:33:09.589Z,93.20
2023-04-16T14:35:36.541Z,93.60
2023-04-16T14:38:03.390Z,92.90
2023-04-16T14:40:30.177Z,92.70
2023-04-16T14:42:56.955Z,92.90
2023-04-16T14:45:26.235Z,93.20
2023-04-16T14:47:53.766Z,93.90
2023-04-16T14:50:20.744Z,93.70
2023-04-16T14:52:47.446Z,93.50
2023-04-16T14:55:14.201Z,93.90
2023-04-16T14:57:41.584Z,93.10
2023-04-16T15:00:10.517Z,91.90
2023-04-16T15:02:37.920Z,91.30
2023-04-16T15:05:05.105Z,91.60
2023-04-16T15:07:32.479Z,91.40
2023-04-16T15:09:59.218Z,91.50
2023-04-16T15:12:26.938Z,91.10
2023-04-16T15:14:53.703Z,91.10
2023-04-16T15:17:21.471Z,91.20
2023-04-16T15:19:48.298Z,90.70
2023-04-16T15:22:15.011Z,89.60
2023-04-16T15:24:41.742Z,89.40
2023-04-16T15:27:11.609Z,88.30
2023-04-16T15:29:38.722Z,89.40
2023-04-16T15:32:06.922Z,89.10
2023-04-16T15:34:34.705Z,89.20
2023-04-16T15:37:01.397Z,90.10
2023-04-16T15:39:28.124Z,89.80
2023-04-16T15:42:01.164Z,89.70
2023-04-16T15:44:28.537Z,90.10
2023-04-16T15:46:55.338Z,90.20
2023-04-16T15:49:22.032Z,90.70
2023-04-16T15:51:48.897Z,90.70
2023-04-16T15:54:15.655Z,91.10
2023-04-16T15:56:42.350Z,91.70
2023-04-16T15:59:09.470Z,91.40
2023-04-16T16:01:36.512Z,91.20
2023-04-16T16:04:03.565Z,91.30
2023-04-16T16:06:31.510Z,91.60
2023-04-16T16:08:58.930Z,91.00
2023-04-16T16:11:26.014Z,90.90
2023-04-16T16:13:52.761Z,90.70
2023-04-16T16:16:19.657Z,90.70
2023-04-16T16:18:47.401Z,90.40
2023-04-16T16:21:14.152Z,90.20
2023-04-16T16:23:41.360Z,90.40
2023-04-16T16:26:08.142Z,90.20
2023-04-16T16:28:37.663Z,90.30
2023-04-16T16:31:06.034Z,90.40
2023-04-16T16:33:33.319Z,90.70
2023-04-16T16:36:00.174Z,90.60
2023-04-16T16:38:27.137Z,90.50
2023-04-16T16:40:53.894Z,90.00
2023-04-16T16:43:20.761Z,90.20
2023-04-16T16:45:47.491Z,90.30
2023-04-16T16:48:14.249Z,89.20
2023-04-16T16:50:41.076Z,89.20
2023-04-16T16:53:07.898Z,87.60
2023-04-16T16:55:35.495Z,86.90
2023-04-16T16:58:06.168Z,88.00
2023-04-16T17:00:36.975Z,88.30
2023-04-16T17:03:03.900Z,88.30
2023-04-16T17:05:30.694Z,89.30
2023-04-16T17:07:57.672Z,89.50
2023-04-16T17:10:25.044Z,90.20
2023-04-16T17:12:51.909Z,90.70
2023-04-16T17:15:21.777Z,90.90
2023-04-16T17:17:52.767Z,91.20
2023-04-16T17:20:19.932Z,91.60
2023-04-16T17:22:46.761Z,92.30
2023-04-16T17:25:13.813Z,92.70
2023-04-16T17:27:40.779Z,93.30
2023-04-16T17:30:09.847Z,94.00
2023-04-16T17:32:36.727Z,95.00
2023-04-16T17:35:04.512Z,95.00
2023-04-16T17:37:31.912Z,95.20
2023-04-16T17:39:58.777Z,95.30
2023-04-16T17:42:25.565Z,95.90
2023-04-16T17:44:52.306Z,96.30
2023-04-16T17:47:19.114Z,96.40
2023-04-16T17:49:46.021Z,96.80
2023-04-16T17:52:13.593Z,96.80
2023-04-16T17:54:40.382Z,97.00
2023-04-16T17:57:07.212Z,97.20
2023-04-16T17:59:34.596Z,97.40
2023-04-16T18:02:01.476Z,98.00
2023-04-16T18:04:28.567Z,98.00
2023-04-16T18:06:55.355Z,98.20
2023-04-16T18:09:22.198Z,98.40
2023-04-16T18:11:48.914Z,99.00
2023-04-16T18:14:19.811Z,99.00
2023-04-16T18:16:48.160Z,99.40
2023-04-16T18:19:16.292Z,99.40
2023-04-16T18:21:43.342Z,99.90
2023-04-16T18:24:10.797Z,99.90
2023-04-16T18:26:40.034Z,99.90
2023-04-16T18:29:07.566Z,99.90
2023-04-16T18:31:34.457Z,99.90
2023-04-16T18:34:01.355Z,99.90
2023-04-16T18:36:28.214Z,99.90
2023-04-16T18:39:02.149Z,99.90
2023-04-16T18:41:30.017Z,99.90
2023-04-16T18:43:57.098Z,99.90
2023-04-16T18:46:23.969Z,99.90
2023-04-16T18:48:50.951Z,99.90
2023-04-16T18:51:17.802Z,99.90
2023-04-16T18:53:45.701Z,99.90
2023-04-16T18:56:13.013Z,99.90
2023-04-16T18:58:39.948Z,99.90
2023-04-16T19:01:11.000Z,99.90
2023-04-16T19:03:38.469Z,99.90
2023-04-16T19:06:06.249Z,99.90
2023-04-16T19:08:33.231Z,99.90
2023-04-16T19:11:00.157Z,99.90
2023-04-16T19:13:26.926Z,99.90
2023-04-16T19:15:59.672Z,99.90
2023-04-16T19:18:26.656Z,99.90
2023-04-16T19:21:00.078Z,99.90
2023-04-16T19:23:27.367Z,99.90
2023-04-16T19:25:56.248Z,99.90
2023-04-16T19:28:23.805Z,99.90
2023-04-16T19:30:54.338Z,99.90
2023-04-16T19:33:21.107Z,99.90
2023-04-16T19:35:47.922Z,99.90
2023-04-16T19:38:14.837Z,99.90
2023-04-16T19:40:45.700Z,99.90
2023-04-16T19:43:12.856Z,99.90
2023-04-16T19:45:44.152Z,99.90
2023-04-16T19:48:11.350Z,99.90
2023-04-16T19:50:42.205Z,99.90
2023-04-16T19:53:09.401Z,99.90
2023-04-16T19:55:36.512Z,99.90
2023-04-16T19:58:06.312Z,99.90
2023-04-16T20:00:35.115Z,99.90
2023-04-16T20:03:02.066Z,99.90
2023-04-16T20:05:29.450Z,99.90
2023-04-16T20:07:56.729Z,99.90
2023-04-16T20:10:24.140Z,99.90
2023-04-16T20:12:51.255Z,99.90
2023-04-16T20:15:18.595Z,99.90
2023-04-16T20:17:45.721Z,99.90
2023-04-16T20:20:14.205Z,99.90
2023-04-16T20:22:41.445Z,99.90
2023-04-16T20:25:09.035Z,99.90
2023-04-16T20:27:36.083Z,99.90
2023-04-16T20:30:04.117Z,99.90
2023-04-16T20:32:30.969Z,99.90
2023-04-16T20:34:57.772Z,99.90
2023-04-16T20:37:24.520Z,99.90
2023-04-16T20:39:54.143Z,99.90
2023-04-16T20:42:22.550Z,99.90
2023-04-16T20:44:56.720Z,99.90
2023-04-16T20:47:23.916Z,99.90
2023-04-16T20:49:52.779Z,99.90
2023-04-16T20:52:20.215Z,99.90
2023-04-16T20:54:47.774Z,99.90
2023-04-16T20:57:14.663Z,99.90
2023-04-16T20:59:41.873Z,99.90
2023-04-16T21:02:08.900Z,99.90
2023-04-16T21:04:36.171Z,99.90
2023-04-16T21:07:04.363Z,99.90
2023-04-16T21:09:31.627Z,99.90
2023-04-16T21:11:58.518Z,99.90
2023-04-16T21:14:25.285Z,99.90
2023-04-16T21:16:52.053Z,99.90
2023-04-16T21:19:18.788Z,99.90
2023-04-16T21:21:45.634Z,99.90
2023-04-16T21:24:12.301Z,99.90
2023-04-16T21:26:39.076Z,99.90
2023-04-16T21:29:05.980Z,99.90
2023-04-16T21:31:32.725Z,99.90
2023-04-16T21:33:59.568Z,99.90
2023-04-16T21:36:27.756Z,99.90
2023-04-16T21:38:54.907Z,99.90
2023-04-16T21:41:21.815Z,99.90
2023-04-16T21:43:48.774Z,99.90
2023-04-16T21:46:15.611Z,99.90
2023-04-16T21:48:42.336Z,99.90
2023-04-16T21:51:10.073Z,99.90
2023-04-16T21:53:38.705Z,99.90
2023-04-16T21:56:06.344Z,99.90
2023-04-16T21:58:33.200Z,99.90
2023-04-16T22:01:00.059Z,99.90
2023-04-16T22:03:28.170Z,99.90
2023-04-16T22:06:00.925Z,99.90
2023-04-16T22:08:31.643Z,99.90
2023-04-16T22:10:59.908Z,99.90
2023-04-16T22:13:27.152Z,99.90
2023-04-16T22:15:55.188Z,99.90
2023-04-16T22:18:25.531Z,99.90
2023-04-16T22:20:56.021Z,99.90
2023-04-16T22:23:23.792Z,99.90
2023-04-16T22:25:51.759Z,99.90
2023-04-16T22:28:18.470Z,99.90
2023-04-16T22:30:45.442Z,99.90
2023-04-16T22:33:12.377Z,99.90
2023-04-16T22:35:39.196Z,99.90
2023-04-16T22:38:06.568Z,99.90
2023-04-16T22:40:33.398Z,99.90
2023-04-16T22:43:00.369Z,99.90
2023-04-16T22:45:27.368Z,99.90
2023-04-16T22:47:54.325Z,99.90
2023-04-16T22:50:22.512Z,99.90
2023-04-16T22:52:49.342Z,99.90
2023-04-16T22:55:16.496Z,99.90
2023-04-16T22:57:43.365Z,99.90
2023-04-16T23:00:15.868Z,99.90
2023-04-16T23:02:43.082Z,99.90
2023-04-16T23:05:10.600Z,99.90
2023-04-16T23:07:37.702Z,99.90
2023-04-16T23:10:05.019Z,99.90
2023-04-16T23:12:31.908Z,99.90
2023-04-16T23:15:00.767Z,99.90
2023-04-16T23:17:28.043Z,99.90
2023-04-16T23:19:55.000Z,99.90
2023-04-16T23:22:21.826Z,99.90
2023-04-16T23:24:48.670Z,99.90
2023-04-16T23:27:15.553Z,99.90
2023-04-16T23:29:42.313Z,99.90
2023-04-16T23:32:09.071Z,99.90
2023-04-16T23:34:36.003Z,99.90
2023-04-16T23:37:02.671Z,99.90
2023-04-16T23:39:29.411Z,99.90
2023-04-16T23:41:57.567Z,99.90
2023-04-16T23:44:24.397Z,99.90
2023-04-16T23:49:18.017Z,99.90
2023-04-16T23:51:44.730Z,99.90
2023-04-16T23:54:11.513Z,99.90
2023-04-16T23:56:38.333Z,99.90
2023-04-16T23:59:05.054Z,99.90
